< < Back
Terminal Aerodrome Forecast


Current Version              Previous Versions:   1  2  3  4  5  6  7  8  9  

Terminal Aerodrome Forecast

897
FTUS44 KMOB 292345
TAFMOB
TAF
KMOB 292345Z 3000/3024 15011KT P6SM SCT025 BKN040
     FM300900 17003KT 4SM BR SCT025 SCT250
     FM301500 24008KT P6SM VCSH BKN025=

Latest METAR

218
SAUS80 KWBC 301000
MTRMOB
METAR KMOB 300956Z AUTO 20004KT 10SM CLR 16/15 A3020 RMK AO2 SLP223
T01560150


USA.gov is the U.S. government's official web portal to all federal, state and local government web resources and services.